createdAt,value
2018-11-21T00:02:13.239Z,858.90
2018-11-21T00:04:44.512Z,860.20
2018-11-21T00:07:15.814Z,856.37
2018-11-21T00:09:47.084Z,735.20
2018-11-21T00:12:18.407Z,783.10
2018-11-21T00:14:49.772Z,764.63
2018-11-21T00:17:21.094Z,440.87
2018-11-21T00:19:52.340Z,828.83
2018-11-21T00:22:23.580Z,903.60
2018-11-21T00:24:54.836Z,608.70
2018-11-21T00:27:26.062Z,772.57
2018-11-21T00:29:57.376Z,544.00
2018-11-21T00:32:28.895Z,652.17
2018-11-21T00:35:00.188Z,752.80
2018-11-21T00:37:31.408Z,799.67
2018-11-21T00:40:02.731Z,494.73
2018-11-21T00:42:33.936Z,760.97
2018-11-21T00:45:05.247Z,319.83
2018-11-21T00:47:36.475Z,472.53
2018-11-21T00:50:08.336Z,866.13
2018-11-21T00:52:39.668Z,741.57
2018-11-21T00:55:10.894Z,770.27
2018-11-21T00:57:42.193Z,709.23
2018-11-21T01:00:13.961Z,686.73
2018-11-21T01:02:45.254Z,825.17
2018-11-21T01:05:16.516Z,761.40
2018-11-21T01:07:47.751Z,794.50
2018-11-21T01:10:19.091Z,671.70
2018-11-21T01:12:50.278Z,649.00
2018-11-21T01:15:21.509Z,727.63
2018-11-21T01:17:52.739Z,795.97
2018-11-21T01:20:24.093Z,624.60
2018-11-21T01:22:55.358Z,737.97
2018-11-21T01:25:26.604Z,768.10
2018-11-21T01:27:57.927Z,635.47
2018-11-21T01:30:29.236Z,514.70
2018-11-21T01:33:00.572Z,696.43
2018-11-21T01:35:31.978Z,812.57
2018-11-21T01:38:03.300Z,693.83
2018-11-21T01:40:34.467Z,697.47
2018-11-21T01:43:05.876Z,721.97
2018-11-21T01:45:37.158Z,823.07
2018-11-21T01:48:08.467Z,675.97
2018-11-21T01:50:39.625Z,554.13
2018-11-21T01:53:10.938Z,657.50
2018-11-21T01:55:42.206Z,793.07
2018-11-21T01:58:13.576Z,714.53
2018-11-21T02:00:44.916Z,686.90
2018-11-21T02:03:16.273Z,779.57
2018-11-21T02:05:47.415Z,768.70
2018-11-21T02:08:18.674Z,775.90
2018-11-21T02:10:50.006Z,704.90
2018-11-21T02:13:21.361Z,657.33
2018-11-21T02:15:52.639Z,644.13
2018-11-21T02:18:23.820Z,773.67
2018-11-21T02:20:55.156Z,648.17
2018-11-21T02:23:26.402Z,625.33
2018-11-21T02:25:57.777Z,910.63
2018-11-21T02:28:29.585Z,976.93
2018-11-21T02:31:00.793Z,808.30
2018-11-21T02:33:32.055Z,735.37
2018-11-21T02:36:03.306Z,824.70
2018-11-21T02:38:34.599Z,794.20
2018-11-21T02:41:05.811Z,910.63
2018-11-21T02:43:37.165Z,803.97
2018-11-21T02:46:08.464Z,685.93
2018-11-21T02:48:39.713Z,789.60
2018-11-21T02:51:10.876Z,780.90
2018-11-21T02:53:42.147Z,856.93
2018-11-21T02:56:13.316Z,889.03
2018-11-21T02:58:44.582Z,846.93
2018-11-21T03:01:15.824Z,909.97
2018-11-21T03:03:47.156Z,848.37
2018-11-21T03:06:18.451Z,949.23
2018-11-21T03:08:49.709Z,662.43
2018-11-21T03:11:21.105Z,694.30
2018-11-21T03:13:52.321Z,724.90
2018-11-21T03:16:23.675Z,949.80
2018-11-21T03:18:55.028Z,728.63
2018-11-21T03:21:26.402Z,881.10
2018-11-21T03:23:57.723Z,680.70
2018-11-21T03:26:29.493Z,958.07
2018-11-21T03:29:00.772Z,950.23
2018-11-21T03:31:32.044Z,865.70
2018-11-21T03:34:03.357Z,843.23
2018-11-21T03:36:34.694Z,1183.17
2018-11-21T03:39:08.158Z,1089.00
2018-11-21T03:41:39.833Z,1019.57
2018-11-21T03:44:19.756Z,1066.40
2018-11-21T03:46:51.153Z,1097.13
2018-11-21T03:49:22.486Z,1209.63
2018-11-21T03:51:53.833Z,1067.53
2018-11-21T03:54:25.184Z,1228.43
2018-11-21T03:56:56.469Z,788.70
2018-11-21T03:59:27.766Z,770.77
2018-11-21T04:01:59.200Z,951.50
2018-11-21T04:04:30.456Z,879.43
2018-11-21T04:07:01.753Z,959.70
2018-11-21T04:09:33.086Z,881.37
2018-11-21T04:12:04.350Z,1078.77
2018-11-21T04:14:35.749Z,942.50
2018-11-21T04:17:07.064Z,886.67
2018-11-21T04:19:38.389Z,755.10
2018-11-21T04:22:09.601Z,867.27
2018-11-21T04:24:40.913Z,788.17
2018-11-21T04:27:12.177Z,654.73
2018-11-21T04:29:43.456Z,1051.63
2018-11-21T04:32:14.741Z,811.87
2018-11-21T04:34:46.024Z,906.77
2018-11-21T04:37:17.247Z,758.93
2018-11-21T04:39:48.580Z,930.70
2018-11-21T04:42:19.738Z,963.17
2018-11-21T04:44:51.019Z,737.23
2018-11-21T04:47:22.234Z,671.07
2018-11-21T04:49:53.499Z,709.07
2018-11-21T04:52:24.656Z,737.70
2018-11-21T04:54:56.023Z,674.77
2018-11-21T04:57:27.221Z,762.43
2018-11-21T04:59:58.531Z,750.23
2018-11-21T05:02:29.763Z,736.03
2018-11-21T05:05:01.005Z,739.90
2018-11-21T05:07:32.327Z,825.07
2018-11-21T05:10:03.552Z,967.83
2018-11-21T05:12:34.899Z,909.10
2018-11-21T05:15:06.374Z,966.67
2018-11-21T05:17:37.743Z,1011.43
2018-11-21T05:20:08.965Z,890.50
2018-11-21T05:22:40.733Z,794.83
2018-11-21T05:25:12.386Z,1099.73
2018-11-21T05:27:43.657Z,930.87
2018-11-21T05:30:14.978Z,888.77
2018-11-21T05:32:46.308Z,966.00
2018-11-21T05:35:17.537Z,854.77
2018-11-21T05:37:48.854Z,996.00
2018-11-21T05:40:20.172Z,984.10
2018-11-21T05:42:51.537Z,1005.70
2018-11-21T05:45:22.914Z,1127.50
2018-11-21T05:47:54.178Z,879.30
2018-11-21T05:50:25.433Z,1175.90
2018-11-21T05:52:56.766Z,1116.50
2018-11-21T05:55:27.981Z,502.33
2018-11-21T05:57:59.269Z,837.50
2018-11-21T06:00:30.565Z,1072.50
2018-11-21T06:03:01.972Z,979.03
2018-11-21T06:05:33.169Z,665.67
2018-11-21T06:08:04.451Z,457.90
2018-11-21T06:10:35.717Z,64.63
2018-11-21T06:13:07.001Z,590.73
2018-11-21T06:15:38.329Z,50.50
2018-11-21T06:18:09.553Z,291.57
2018-11-21T06:20:40.822Z,553.27
2018-11-21T06:23:12.091Z,529.33
2018-11-21T06:25:43.399Z,702.17
2018-11-21T06:28:14.546Z,115.53
2018-11-21T06:30:46.322Z,63.13
2018-11-21T06:33:17.576Z,38.10
2018-11-21T06:35:48.866Z,40.67
2018-11-21T06:38:20.037Z,32.00
2018-11-21T06:40:51.337Z,47.53
2018-11-21T06:43:22.589Z,671.20
2018-11-21T06:45:53.948Z,672.77
2018-11-21T06:48:25.185Z,43.90
2018-11-21T06:50:56.387Z,754.20
2018-11-21T06:53:27.769Z,935.77
2018-11-21T06:55:59.040Z,623.80
2018-11-21T06:58:30.298Z,83.60
2018-11-21T07:01:01.595Z,57.83
2018-11-21T07:03:32.865Z,199.67
2018-11-21T07:06:04.039Z,27.70
2018-11-21T07:08:35.296Z,24.23
2018-11-21T07:11:06.629Z,28.60
2018-11-21T07:13:37.929Z,29.77
2018-11-21T07:16:09.232Z,28.97
2018-11-21T07:18:40.936Z,28.50
2018-11-21T07:21:12.354Z,26.67
2018-11-21T07:23:43.709Z,22.30
2018-11-21T07:26:15.027Z,27.33
2018-11-21T07:28:46.247Z,29.30
2018-11-21T07:31:17.550Z,76.53
2018-11-21T07:33:48.792Z,623.77
2018-11-21T07:36:20.099Z,581.33
2018-11-21T07:38:51.712Z,673.50
2018-11-21T07:41:22.978Z,1254.97
2018-11-21T07:43:54.268Z,951.20
2018-11-21T07:46:25.599Z,1027.67
2018-11-21T07:48:56.899Z,1278.87
2018-11-21T07:51:28.113Z,1018.97
2018-11-21T07:53:59.403Z,955.67
2018-11-21T07:57:08.169Z,1176.83
2018-11-21T07:59:39.515Z,969.03
2018-11-21T08:02:14.543Z,826.03
2018-11-21T08:05:04.343Z,1043.97
2018-11-21T08:07:54.154Z,827.57
2018-11-21T08:10:43.957Z,1008.47
2018-11-21T08:13:33.731Z,751.87
2018-11-21T08:16:23.589Z,831.57
2018-11-21T08:19:13.379Z,576.80
2018-11-21T08:22:03.172Z,38.13
2018-11-21T08:24:46.402Z,20.70
2018-11-21T08:27:36.230Z,660.00
2018-11-21T08:30:07.770Z,957.13
2018-11-21T08:32:39.103Z,516.47
2018-11-21T08:35:10.322Z,768.30
2018-11-21T08:37:41.720Z,574.27
2018-11-21T08:40:13.045Z,690.90
2018-11-21T08:42:44.607Z,783.47
2018-11-21T08:45:15.897Z,608.37
2018-11-21T08:47:47.253Z,331.07
2018-11-21T08:50:18.565Z,625.40
2018-11-21T08:52:49.949Z,321.83
2018-11-21T08:55:21.172Z,615.97
2018-11-21T08:57:55.001Z,293.53
2018-11-21T09:00:26.397Z,433.33
2018-11-21T09:02:57.797Z,1035.80
2018-11-21T09:05:29.066Z,827.33
2018-11-21T09:08:00.274Z,908.03
2018-11-21T09:13:01.840Z,793.40
2018-11-21T09:15:33.089Z,736.03
2018-11-21T09:18:04.430Z,1233.43
2018-11-21T09:20:35.681Z,932.37
2018-11-21T09:23:06.991Z,1291.60
2018-11-21T09:25:38.138Z,968.93
2018-11-21T09:28:09.442Z,672.20
2018-11-21T09:30:40.744Z,817.80
2018-11-21T09:33:12.081Z,614.53
2018-11-21T09:35:43.450Z,92.20
2018-11-21T09:38:14.821Z,679.17
2018-11-21T09:43:34.718Z,604.70
2018-11-21T09:46:06.160Z,530.77
2018-11-21T09:48:37.427Z,569.40
2018-11-21T09:51:08.848Z,93.93
2018-11-21T09:53:40.137Z,316.83
2018-11-21T09:56:11.381Z,58.70
2018-11-21T09:58:42.695Z,276.37
2018-11-21T10:01:51.516Z,340.20
2018-11-21T10:04:22.818Z,363.00
2018-11-21T10:06:54.116Z,508.70
2018-11-21T10:09:28.342Z,58.47
2018-11-21T10:11:59.648Z,334.13
2018-11-21T10:14:30.971Z,319.03
2018-11-21T10:17:02.197Z,376.40
2018-11-21T10:19:33.530Z,632.23
2018-11-21T10:22:04.776Z,768.77
2018-11-21T10:24:36.063Z,736.23
2018-11-21T10:27:07.491Z,859.60
2018-11-21T10:29:38.734Z,955.10
2018-11-21T10:32:09.969Z,568.00
2018-11-21T10:34:41.222Z,740.80
2018-11-21T10:37:12.482Z,683.70
2018-11-21T10:39:43.819Z,772.53
2018-11-21T10:42:15.055Z,481.80
2018-11-21T10:44:46.341Z,639.10
2018-11-21T10:47:17.677Z,685.20
2018-11-21T10:49:48.844Z,438.30
2018-11-21T10:52:20.176Z,308.57
2018-11-21T10:54:51.413Z,268.60
2018-11-21T10:57:22.772Z,462.13
2018-11-21T10:59:54.095Z,551.13
2018-11-21T11:02:43.820Z,494.00
2018-11-21T11:05:33.635Z,771.43
2018-11-21T11:08:23.407Z,682.03
2018-11-21T11:11:13.173Z,609.30
2018-11-21T11:14:02.956Z,665.10
2018-11-21T11:16:52.769Z,403.63
2018-11-21T11:19:42.647Z,565.70
2018-11-21T11:22:32.464Z,445.87
2018-11-21T11:25:22.211Z,327.90
2018-11-21T11:28:14.643Z,477.77
2018-11-21T11:31:01.926Z,385.77
2018-11-21T11:33:51.789Z,520.33
2018-11-21T11:36:41.486Z,464.30
2018-11-21T11:39:31.236Z,414.33
2018-11-21T11:42:20.957Z,39.23
2018-11-21T11:45:14.399Z,500.90
2018-11-21T11:48:00.582Z,614.63
2018-11-21T11:50:55.252Z,654.10
2018-11-21T11:53:45.030Z,513.77
2018-11-21T11:56:34.777Z,82.27
2018-11-21T11:59:24.754Z,416.80
2018-11-21T12:02:14.525Z,541.10
2018-11-21T12:05:04.337Z,408.30
2018-11-21T12:07:54.183Z,483.67
2018-11-21T12:10:43.895Z,484.13
2018-11-21T12:13:33.704Z,419.30
2018-11-21T12:16:23.521Z,685.10
2018-11-21T12:19:08.714Z,623.27
2018-11-21T12:21:58.539Z,458.40
2018-11-21T12:24:48.266Z,526.13
2018-11-21T12:27:38.104Z,616.40
2018-11-21T12:30:29.512Z,629.30
2018-11-21T12:33:19.373Z,92.77
2018-11-21T12:36:09.427Z,610.43
2018-11-21T12:38:59.226Z,343.43
2018-11-21T12:41:49.074Z,595.63
2018-11-21T12:44:38.895Z,435.43
2018-11-21T12:47:28.667Z,664.50
2018-11-21T12:50:18.467Z,835.20
2018-11-21T12:53:08.289Z,538.87
2018-11-21T12:55:58.137Z,399.17
2018-11-21T12:58:47.947Z,591.60
2018-11-21T13:01:37.789Z,278.23
2018-11-21T13:04:27.568Z,447.57
2018-11-21T13:07:15.733Z,205.30
2018-11-21T13:10:05.422Z,57.93
2018-11-21T13:12:55.268Z,119.47
2018-11-21T13:15:43.437Z,669.43
2018-11-21T13:18:30.338Z,704.33
2018-11-21T13:21:20.100Z,721.57
2018-11-21T13:24:09.878Z,805.23
2018-11-21T13:26:59.818Z,704.70
2018-11-21T13:29:49.578Z,773.30
2018-11-21T13:32:39.359Z,736.33
2018-11-21T13:35:29.179Z,652.30
2018-11-21T13:38:23.282Z,449.73
2018-11-21T13:41:08.739Z,259.43
2018-11-21T13:43:58.538Z,414.83
2018-11-21T13:46:48.388Z,159.50
2018-11-21T13:49:38.131Z,245.40
2018-11-21T13:52:27.916Z,508.10
2018-11-21T13:55:00.808Z,642.43
2018-11-21T13:57:32.721Z,151.63
2018-11-21T14:00:04.247Z,504.60
2018-11-21T14:02:35.667Z,416.20
2018-11-21T14:05:25.707Z,600.73
2018-11-21T14:07:57.737Z,260.60
2018-11-21T14:10:28.998Z,509.50
2018-11-21T14:13:00.445Z,691.70
2018-11-21T14:15:32.839Z,788.07
2018-11-21T14:18:03.082Z,505.57
2018-11-21T14:20:34.313Z,572.53
2018-11-21T14:23:05.696Z,727.73
2018-11-21T14:25:36.979Z,524.67
2018-11-21T14:28:08.309Z,609.67
2018-11-21T14:30:39.482Z,653.83
2018-11-21T14:33:10.813Z,678.43
2018-11-21T14:35:42.031Z,698.13
2018-11-21T14:38:13.343Z,427.03
2018-11-21T14:40:44.585Z,173.43
2018-11-21T14:43:16.172Z,534.23
2018-11-21T14:45:47.410Z,617.90
2018-11-21T14:48:18.814Z,484.27
2018-11-21T14:50:50.159Z,403.17
2018-11-21T14:53:33.027Z,405.53
2018-11-21T14:56:04.338Z,63.03
2018-11-21T14:58:35.615Z,123.43
2018-11-21T15:01:06.975Z,280.83
2018-11-21T15:03:38.346Z,295.73
2018-11-21T15:06:09.823Z,125.77
2018-11-21T15:08:41.272Z,512.70
2018-11-21T15:11:12.559Z,58.87
2018-11-21T15:13:43.747Z,113.57
2018-11-21T15:16:15.190Z,131.80
2018-11-21T15:18:46.438Z,210.10
2018-11-21T15:21:17.739Z,78.27
2018-11-21T15:23:49.008Z,66.93
2018-11-21T15:26:20.768Z,82.90
2018-11-21T15:28:52.097Z,95.00
2018-11-21T15:31:23.466Z,64.17
2018-11-21T15:33:54.716Z,446.87
2018-11-21T15:36:26.030Z,711.20
2018-11-21T15:38:57.200Z,232.33
2018-11-21T15:41:28.481Z,406.20
2018-11-21T15:43:59.671Z,172.10
2018-11-21T15:46:30.950Z,586.17
2018-11-21T15:49:02.220Z,686.97
2018-11-21T15:51:33.869Z,683.40
2018-11-21T15:54:05.250Z,651.40
2018-11-21T15:56:36.867Z,412.47
2018-11-21T15:59:08.464Z,539.77
2018-11-21T16:01:39.788Z,531.43
2018-11-21T16:04:11.043Z,631.67
2018-11-21T16:06:42.365Z,643.00
2018-11-21T16:09:13.801Z,907.67
2018-11-21T16:11:45.174Z,532.67
2018-11-21T16:14:16.392Z,692.07
2018-11-21T16:16:47.661Z,514.13
2018-11-21T16:19:18.972Z,569.30
2018-11-21T16:21:50.381Z,672.57
2018-11-21T16:24:21.630Z,577.20
2018-11-21T16:26:52.929Z,606.77
2018-11-21T16:29:24.159Z,493.03
2018-11-21T16:31:55.933Z,609.50
2018-11-21T16:34:27.261Z,437.87
2018-11-21T16:36:58.669Z,467.43
2018-11-21T16:39:30.051Z,97.13
2018-11-21T16:42:01.421Z,219.13
2018-11-21T16:44:32.777Z,362.67
2018-11-21T16:47:04.045Z,135.73
2018-11-21T16:49:35.523Z,312.40
2018-11-21T16:52:07.576Z,62.23
2018-11-21T16:54:38.884Z,72.97
2018-11-21T16:57:10.166Z,139.83
2018-11-21T16:59:41.532Z,27.20
2018-11-21T17:02:12.834Z,27.40
2018-11-21T17:04:44.083Z,46.83
2018-11-21T17:07:15.374Z,24.57
2018-11-21T17:09:49.148Z,37.60
2018-11-21T17:12:20.635Z,31.37
2018-11-21T17:14:51.896Z,53.37
2018-11-21T17:17:23.168Z,445.67
2018-11-21T17:19:54.338Z,469.20
2018-11-21T17:22:26.178Z,304.40
2018-11-21T17:24:56.761Z,278.47
2018-11-21T17:27:28.120Z,46.27
2018-11-21T17:29:59.305Z,30.00
2018-11-21T17:32:30.594Z,32.10
2018-11-21T17:35:01.844Z,17.80
2018-11-21T17:37:33.229Z,26.57
2018-11-21T17:40:04.486Z,16.70
2018-11-21T17:42:35.667Z,12.77
2018-11-21T17:45:07.686Z,18.90
2018-11-21T17:47:38.933Z,20.93
2018-11-21T17:50:13.236Z,15.23
2018-11-21T17:52:44.784Z,16.30
2018-11-21T17:55:17.592Z,230.07
2018-11-21T17:57:48.911Z,134.10
2018-11-21T18:00:38.864Z,15.30
2018-11-21T18:03:10.203Z,18.40
2018-11-21T18:05:42.308Z,98.00
2018-11-21T18:08:13.551Z,165.83
2018-11-21T18:10:44.788Z,70.77
2018-11-21T18:13:16.157Z,174.90
2018-11-21T18:15:47.425Z,112.57
2018-11-21T18:18:18.740Z,133.37
2018-11-21T18:20:50.083Z,166.47
2018-11-21T18:23:21.261Z,277.20
2018-11-21T18:25:52.551Z,349.70
2018-11-21T18:28:23.829Z,259.07
2018-11-21T18:30:55.139Z,361.60
2018-11-21T18:33:26.461Z,498.80
2018-11-21T18:35:57.733Z,405.67
2018-11-21T18:38:29.106Z,514.90
2018-11-21T18:41:00.346Z,472.47
2018-11-21T18:43:31.698Z,516.57
2018-11-21T18:46:02.965Z,193.83
2018-11-21T18:48:34.320Z,336.90
2018-11-21T18:51:05.502Z,517.93
2018-11-21T18:53:36.869Z,389.47
2018-11-21T18:56:45.646Z,417.63
2018-11-21T18:59:54.446Z,543.37
2018-11-21T19:02:25.826Z,500.13
2018-11-21T19:04:57.224Z,402.53
2018-11-21T19:07:28.544Z,352.17
2018-11-21T19:09:59.790Z,263.77
2018-11-21T19:12:31.153Z,210.93
2018-11-21T19:15:02.464Z,171.40
2018-11-21T19:17:33.929Z,244.60
2018-11-21T19:20:05.572Z,167.13
2018-11-21T19:22:37.016Z,176.50
2018-11-21T19:25:09.396Z,42.10
2018-11-21T19:27:41.263Z,55.93
2018-11-21T19:30:14.729Z,83.43
2018-11-21T19:32:46.070Z,98.87
2018-11-21T19:35:17.502Z,110.93
2018-11-21T19:37:48.828Z,26.13
2018-11-21T19:40:20.281Z,19.50
2018-11-21T19:42:51.460Z,15.87
2018-11-21T19:45:22.825Z,13.77
2018-11-21T19:47:54.214Z,21.90
2018-11-21T19:50:25.598Z,6.90
2018-11-21T19:52:57.113Z,9.00
2018-11-21T19:55:29.948Z,10.30
2018-11-21T19:58:01.274Z,46.50
2018-11-21T20:00:33.836Z,6.93
2018-11-21T20:03:05.112Z,8.40
2018-11-21T20:05:36.625Z,12.47
2018-11-21T20:08:07.923Z,5.20
2018-11-21T20:10:39.147Z,4.17
2018-11-21T20:13:10.447Z,4.30
2018-11-21T20:15:41.740Z,5.43
2018-11-21T20:18:12.996Z,3.73
2018-11-21T20:20:44.297Z,3.33
2018-11-21T20:23:15.510Z,2.80
2018-11-21T20:25:46.824Z,4.00
2018-11-21T20:28:18.034Z,3.20
2018-11-21T20:30:49.310Z,3.53
2018-11-21T20:33:20.523Z,4.07
2018-11-21T20:35:51.898Z,3.33
2018-11-21T20:38:23.103Z,4.80
2018-11-21T20:40:54.495Z,5.40
2018-11-21T20:46:09.705Z,5.63
2018-11-21T20:48:41.152Z,2.60
2018-11-21T20:51:29.899Z,2.77
2018-11-21T20:54:01.143Z,3.80
2018-11-21T20:56:32.453Z,2.90
2018-11-21T20:59:03.842Z,3.17
2018-11-21T21:01:35.306Z,4.03
2018-11-21T21:04:06.729Z,3.37
2018-11-21T21:06:38.015Z,3.73
2018-11-21T21:09:14.960Z,4.00
2018-11-21T21:11:46.176Z,3.90
2018-11-21T21:14:17.523Z,4.37
2018-11-21T21:16:48.842Z,5.30
2018-11-21T21:19:20.225Z,4.73
2018-11-21T21:21:51.483Z,3.47
2018-11-21T21:24:22.728Z,3.00
2018-11-21T21:26:54.072Z,3.10
2018-11-21T21:29:25.361Z,3.63
2018-11-21T21:31:56.713Z,3.60
2018-11-21T21:34:27.941Z,3.40
2018-11-21T21:36:59.230Z,3.40
2018-11-21T21:39:30.556Z,3.13
2018-11-21T21:42:01.911Z,3.73
2018-11-21T21:44:33.146Z,6.73
2018-11-21T21:47:04.460Z,4.57
2018-11-21T21:49:35.775Z,5.07
2018-11-21T21:52:07.021Z,3.60
2018-11-21T21:54:38.311Z,5.00
2018-11-21T21:57:09.559Z,4.63
2018-11-21T21:59:40.849Z,3.60
2018-11-21T22:02:12.205Z,3.40
2018-11-21T22:04:43.481Z,3.27
2018-11-21T22:07:14.795Z,3.13
2018-11-21T22:12:17.333Z,3.00
2018-11-21T22:14:48.567Z,3.97
2018-11-21T22:17:19.836Z,3.13
2018-11-21T22:19:51.035Z,3.33
2018-11-21T22:22:22.317Z,3.13
2018-11-21T22:24:53.568Z,3.67
2018-11-21T22:27:24.907Z,4.47
2018-11-21T22:29:56.208Z,3.17
2018-11-21T22:32:27.568Z,3.00
2018-11-21T22:34:58.744Z,4.47
2018-11-21T22:37:30.863Z,5.93
2018-11-21T22:40:01.249Z,4.37
2018-11-21T22:42:32.568Z,3.67
2018-11-21T22:45:03.729Z,6.03
2018-11-21T22:47:35.079Z,4.73
2018-11-21T22:50:06.518Z,3.90
2018-11-21T22:52:37.867Z,4.87
2018-11-21T22:55:10.418Z,4.33
2018-11-21T22:57:42.237Z,3.83
2018-11-21T23:00:15.677Z,4.63
2018-11-21T23:02:46.926Z,5.20
2018-11-21T23:05:18.595Z,7.03
2018-11-21T23:07:49.918Z,5.33
2018-11-21T23:10:27.750Z,5.87
2018-11-21T23:12:59.128Z,3.97
2018-11-21T23:15:30.473Z,4.47
2018-11-21T23:18:01.748Z,7.40
2018-11-21T23:20:33.067Z,4.80
2018-11-21T23:23:04.498Z,6.23
2018-11-21T23:25:35.920Z,6.10
2018-11-21T23:28:09.207Z,5.67
2018-11-21T23:30:40.535Z,5.57
2018-11-21T23:33:11.762Z,4.53
2018-11-21T23:35:43.119Z,5.40
2018-11-21T23:38:14.403Z,5.67
2018-11-21T23:40:45.736Z,5.03
2018-11-21T23:43:17.025Z,6.83
2018-11-21T23:45:48.395Z,6.03
2018-11-21T23:48:19.615Z,7.57
2018-11-21T23:50:50.918Z,5.87
2018-11-21T23:53:22.146Z,5.17
2018-11-21T23:55:53.401Z,7.27
2018-11-21T23:58:24.716Z,6.90
